Dunning, North Dakota
Current Conditions -  °F | °C
As of 6:40 PM on Monday 22 Dec 2014 (Local Time) from KMIB Reporting Station
Overcast Overcast  
Wind Chill: 17°   Ceiling: 500
Heat Index: 28°   Visibility: 10mi
Dew Point: 28°   Wind: 15mph
Humidity: 100%   Direction: 340°NNW
Pressure: 29.72"   Gusts: NA
Location:  48.7978°N, 101.326°W
Report Text: KMIB 230040Z AUTO 34013KT 10SM OVC005 M02/M02 A2972 RMK AO2 RAE0035 $
Loading
Personal Weather Stations






























Interactive Weather Map New forecast layout! Learn more

10-Day Weather Forecast

Advertisements
Track Severe Weather on mobile